CFG9ML EGKK-EDDF
Flight info
| Callsign | CFG9ML |
|---|---|
| Flight time | 1h 26m |
| Altitude | 35000 |
| Route | DVR UL9 KONAN UL607 KOK DCT REMBA UL607 SPI T180 NIVNU/N0355F230 T847 IMCOM IMCOM1B |
| Aircraft | A20N/M-SDE2E3FGHIRWXY/LB1 |
Departure
| Time | 2026-05-06 16:59 |
|---|---|
| Airport | London Gatwick Airport (EGKK) |
Arrival
| Time | 2026-05-06 18:25 |
|---|---|
| Airport | Frankfurt Main Airport (EDDF) |
| Time | Latitude | Longitude | Altitude | Speed | Heading |
|---|---|---|---|---|---|
| 2026-05-06 16:25 | 51.15267 | -0.18899 | 205 ft | 0 kts | 257° |
| 2026-05-06 16:36 | 51.15270 | -0.18877 | 217 ft | 0 kts | 257° |
| 2026-05-06 16:43 | 51.15271 | -0.18872 | 204 ft | 3 kts | 257° |
| 2026-05-06 16:43 | 51.15276 | -0.18830 | 213 ft | 4 kts | 257° |
| 2026-05-06 16:43 | 51.15281 | -0.18795 | 208 ft | 4 kts | 253° |
| 2026-05-06 16:44 | 51.15295 | -0.18763 | 217 ft | 4 kts | 204° |
| 2026-05-06 16:44 | 51.15320 | -0.18754 | 216 ft | 4 kts | 175° |
| 2026-05-06 16:44 | 51.15345 | -0.18761 | 212 ft | 3 kts | 168° |
| 2026-05-06 16:44 | 51.15349 | -0.18762 | 212 ft | 0 kts | 168° |
| 2026-05-06 16:50 | 51.15343 | -0.18760 | 213 ft | 2 kts | 168° |
| 2026-05-06 16:50 | 51.15326 | -0.18754 | 215 ft | 5 kts | 168° |
| 2026-05-06 16:51 | 51.15264 | -0.18733 | 211 ft | 9 kts | 168° |
| 2026-05-06 16:51 | 51.15191 | -0.18708 | 215 ft | 10 kts | 167° |
| 2026-05-06 16:51 | 51.15134 | -0.18735 | 214 ft | 10 kts | 233° |
| 2026-05-06 16:51 | 51.15114 | -0.18856 | 215 ft | 13 kts | 257° |
| 2026-05-06 16:52 | 51.15092 | -0.19005 | 210 ft | 15 kts | 257° |
| 2026-05-06 16:52 | 51.15069 | -0.19186 | 207 ft | 18 kts | 261° |
| 2026-05-06 16:52 | 51.15042 | -0.19394 | 214 ft | 20 kts | 258° |
| 2026-05-06 16:52 | 51.15010 | -0.19622 | 214 ft | 22 kts | 258° |
| 2026-05-06 16:53 | 51.14978 | -0.19846 | 208 ft | 19 kts | 257° |
| 2026-05-06 16:53 | 51.14947 | -0.20066 | 207 ft | 21 kts | 258° |
| 2026-05-06 16:53 | 51.14920 | -0.20260 | 204 ft | 15 kts | 256° |
| 2026-05-06 16:53 | 51.14894 | -0.20440 | 207 ft | 15 kts | 258° |
| 2026-05-06 16:54 | 51.14877 | -0.20584 | 209 ft | 15 kts | 259° |
| 2026-05-06 16:54 | 51.14852 | -0.20755 | 209 ft | 17 kts | 256° |
| 2026-05-06 16:54 | 51.14824 | -0.20951 | 214 ft | 19 kts | 258° |
| 2026-05-06 16:54 | 51.14798 | -0.21132 | 215 ft | 15 kts | 248° |
| 2026-05-06 16:55 | 51.14767 | -0.21305 | 212 ft | 17 kts | 258° |
| 2026-05-06 16:55 | 51.14730 | -0.21397 | 206 ft | 5 kts | 202° |
| 2026-05-06 16:55 | 51.14686 | -0.21391 | 210 ft | 7 kts | 160° |
| 2026-05-06 16:55 | 51.14643 | -0.21344 | 208 ft | 8 kts | 159° |
| 2026-05-06 16:56 | 51.14626 | -0.21336 | 206 ft | 0 kts | 163° |
| 2026-05-06 16:56 | 51.14625 | -0.21336 | 214 ft | 1 kts | 163° |
| 2026-05-06 16:57 | 51.14607 | -0.21327 | 205 ft | 4 kts | 163° |
| 2026-05-06 16:57 | 51.14569 | -0.21306 | 207 ft | 7 kts | 155° |
| 2026-05-06 16:57 | 51.14528 | -0.21236 | 213 ft | 10 kts | 118° |
| 2026-05-06 16:57 | 51.14528 | -0.21118 | 211 ft | 11 kts | 79° |
| 2026-05-06 16:58 | 51.14556 | -0.20922 | 212 ft | 42 kts | 77° |
| 2026-05-06 16:58 | 51.14672 | -0.20088 | 210 ft | 108 kts | 78° |
| 2026-05-06 16:58 | 51.14869 | -0.18672 | 208 ft | 155 kts | 77° |
| 2026-05-06 16:58 | 51.15079 | -0.16887 | 774 ft | 166 kts | 77° |
| 2026-05-06 16:59 | 51.15284 | -0.15022 | 1619 ft | 171 kts | 74° |
| 2026-05-06 16:59 | 51.15566 | -0.13171 | 2470 ft | 178 kts | 72° |
| 2026-05-06 16:59 | 51.15891 | -0.11157 | 3013 ft | 198 kts | 72° |
| 2026-05-06 16:59 | 51.16229 | -0.08911 | 3519 ft | 217 kts | 74° |
| 2026-05-06 17:00 | 51.16574 | -0.06442 | 4074 ft | 236 kts | 75° |
| 2026-05-06 17:00 | 51.16795 | -0.04706 | 4465 ft | 249 kts | 78° |
| 2026-05-06 17:00 | 51.16871 | -0.00850 | 5424 ft | 268 kts | 90° |
| 2026-05-06 17:00 | 51.16821 | 0.01132 | 5737 ft | 272 kts | 89° |
| 2026-05-06 17:01 | 51.16757 | 0.04144 | 5942 ft | 271 kts | 90° |
| 2026-05-06 17:01 | 51.16703 | 0.07154 | 5988 ft | 271 kts | 90° |
| 2026-05-06 17:01 | 51.16649 | 0.10155 | 5990 ft | 271 kts | 90° |
| 2026-05-06 17:01 | 51.16593 | 0.13154 | 5988 ft | 272 kts | 89° |
| 2026-05-06 17:02 | 51.16537 | 0.16177 | 6233 ft | 274 kts | 89° |
| 2026-05-06 17:02 | 51.16527 | 0.19228 | 7011 ft | 275 kts | 88° |
| 2026-05-06 17:02 | 51.16543 | 0.22286 | 7964 ft | 279 kts | 87° |
| 2026-05-06 17:02 | 51.16562 | 0.25377 | 8830 ft | 284 kts | 87° |
| 2026-05-06 17:03 | 51.16579 | 0.28560 | 9733 ft | 290 kts | 88° |
| 2026-05-06 17:03 | 51.16587 | 0.31795 | 10577 ft | 295 kts | 88° |
| 2026-05-06 17:03 | 51.16592 | 0.35083 | 11394 ft | 300 kts | 88° |
| 2026-05-06 17:03 | 51.16593 | 0.38436 | 12230 ft | 304 kts | 88° |
| 2026-05-06 17:04 | 51.16593 | 0.41827 | 13062 ft | 309 kts | 89° |
| 2026-05-06 17:04 | 51.16591 | 0.45282 | 13835 ft | 315 kts | 89° |
| 2026-05-06 17:04 | 51.16588 | 0.48795 | 14555 ft | 318 kts | 89° |
| 2026-05-06 17:04 | 51.16586 | 0.52399 | 14996 ft | 335 kts | 89° |
| 2026-05-06 17:05 | 51.16585 | 0.56228 | 15203 ft | 357 kts | 89° |
| 2026-05-06 17:05 | 51.16583 | 0.60283 | 15538 ft | 372 kts | 89° |
| 2026-05-06 17:05 | 51.16579 | 0.64417 | 16265 ft | 374 kts | 89° |
| 2026-05-06 17:05 | 51.16573 | 0.68604 | 16936 ft | 380 kts | 89° |
| 2026-05-06 17:06 | 51.16565 | 0.72845 | 17607 ft | 384 kts | 90° |
| 2026-05-06 17:06 | 51.16555 | 0.77115 | 18320 ft | 387 kts | 90° |
| 2026-05-06 17:06 | 51.16544 | 0.81444 | 18895 ft | 392 kts | 90° |
| 2026-05-06 17:06 | 51.16531 | 0.85804 | 19489 ft | 395 kts | 90° |
| 2026-05-06 17:07 | 51.16517 | 0.90187 | 20120 ft | 397 kts | 90° |
| 2026-05-06 17:07 | 51.16500 | 0.94617 | 20656 ft | 402 kts | 90° |
| 2026-05-06 17:07 | 51.16483 | 0.99030 | 21244 ft | 405 kts | 90° |
| 2026-05-06 17:07 | 51.16463 | 1.03592 | 21843 ft | 409 kts | 90° |
| 2026-05-06 17:08 | 51.16442 | 1.08086 | 22386 ft | 413 kts | 90° |
| 2026-05-06 17:08 | 51.16418 | 1.12678 | 22982 ft | 416 kts | 91° |
| 2026-05-06 17:08 | 51.16392 | 1.17305 | 23521 ft | 419 kts | 91° |
| 2026-05-06 17:08 | 51.16364 | 1.21971 | 24000 ft | 422 kts | 91° |
| 2026-05-06 17:09 | 51.16333 | 1.26661 | 24492 ft | 425 kts | 91° |
| 2026-05-06 17:09 | 51.16301 | 1.31384 | 24966 ft | 427 kts | 91° |
| 2026-05-06 17:09 | 51.16251 | 1.36134 | 25421 ft | 430 kts | 93° |
| 2026-05-06 17:09 | 51.16025 | 1.40892 | 25867 ft | 432 kts | 95° |
| 2026-05-06 17:10 | 51.15794 | 1.45679 | 26300 ft | 435 kts | 95° |
| 2026-05-06 17:10 | 51.15567 | 1.50501 | 26732 ft | 438 kts | 95° |
| 2026-05-06 17:10 | 51.15336 | 1.55340 | 27165 ft | 440 kts | 95° |
| 2026-05-06 17:10 | 51.15100 | 1.60213 | 27583 ft | 442 kts | 95° |
| 2026-05-06 17:11 | 51.14860 | 1.65105 | 27981 ft | 444 kts | 95° |
| 2026-05-06 17:11 | 51.14616 | 1.70027 | 28367 ft | 447 kts | 95° |
| 2026-05-06 17:11 | 51.14369 | 1.74971 | 28743 ft | 449 kts | 95° |
| 2026-05-06 17:11 | 51.14118 | 1.79938 | 29114 ft | 451 kts | 95° |
| 2026-05-06 17:12 | 51.13863 | 1.84930 | 29456 ft | 454 kts | 95° |
| 2026-05-06 17:12 | 51.13605 | 1.89956 | 29830 ft | 456 kts | 95° |
| 2026-05-06 17:12 | 51.13344 | 1.94985 | 30159 ft | 458 kts | 95° |
| 2026-05-06 17:12 | 51.13079 | 2.00068 | 30406 ft | 461 kts | 95° |
| 2026-05-06 17:13 | 51.12901 | 2.03432 | 30669 ft | 461 kts | 95° |
| 2026-05-06 17:13 | 51.12539 | 2.10256 | 31029 ft | 465 kts | 95° |
| 2026-05-06 17:13 | 51.12267 | 2.15325 | 31371 ft | 465 kts | 95° |
| 2026-05-06 17:13 | 51.11987 | 2.20501 | 31840 ft | 463 kts | 95° |
| 2026-05-06 17:14 | 51.11712 | 2.25552 | 32117 ft | 465 kts | 95° |
| 2026-05-06 17:14 | 51.11431 | 2.30664 | 32557 ft | 462 kts | 95° |
| 2026-05-06 17:14 | 51.11149 | 2.35754 | 32950 ft | 462 kts | 95° |
| 2026-05-06 17:14 | 51.10864 | 2.40852 | 33261 ft | 462 kts | 95° |
| 2026-05-06 17:15 | 51.10578 | 2.45913 | 33766 ft | 458 kts | 95° |
| 2026-05-06 17:15 | 51.10291 | 2.50971 | 34016 ft | 460 kts | 96° |
| 2026-05-06 17:15 | 51.10001 | 2.56039 | 34266 ft | 460 kts | 95° |
| 2026-05-06 17:15 | 51.09709 | 2.61088 | 34569 ft | 459 kts | 96° |
| 2026-05-06 17:16 | 51.09230 | 2.66116 | 34698 ft | 461 kts | 103° |
| 2026-05-06 17:16 | 51.08562 | 2.70290 | 34881 ft | 459 kts | 107° |
| 2026-05-06 17:16 | 51.07670 | 2.75147 | 34936 ft | 458 kts | 107° |
| 2026-05-06 17:17 | 51.05897 | 2.84914 | 34936 ft | 458 kts | 107° |
| 2026-05-06 17:17 | 51.04131 | 2.94624 | 34938 ft | 458 kts | 107° |
| 2026-05-06 17:18 | 51.02364 | 3.04269 | 34932 ft | 456 kts | 107° |
| 2026-05-06 17:18 | 51.00581 | 3.13956 | 34928 ft | 459 kts | 107° |
| 2026-05-06 17:19 | 50.98789 | 3.23635 | 34920 ft | 457 kts | 107° |
| 2026-05-06 17:19 | 50.96985 | 3.33335 | 34914 ft | 457 kts | 107° |
| 2026-05-06 17:20 | 50.95183 | 3.42966 | 34909 ft | 456 kts | 108° |
| 2026-05-06 17:20 | 50.93367 | 3.52613 | 34908 ft | 455 kts | 108° |
| 2026-05-06 17:21 | 50.91546 | 3.62251 | 34900 ft | 457 kts | 108° |
| 2026-05-06 17:21 | 50.89720 | 3.71862 | 34903 ft | 456 kts | 108° |
| 2026-05-06 17:22 | 50.87879 | 3.81500 | 34898 ft | 456 kts | 108° |
| 2026-05-06 17:22 | 50.86053 | 3.91017 | 34901 ft | 454 kts | 108° |
| 2026-05-06 17:23 | 50.84218 | 4.00526 | 34893 ft | 454 kts | 108° |
| 2026-05-06 17:23 | 50.82363 | 4.10096 | 34890 ft | 455 kts | 108° |
| 2026-05-06 17:24 | 50.80501 | 4.19655 | 34885 ft | 455 kts | 108° |
| 2026-05-06 17:24 | 50.78632 | 4.29198 | 34896 ft | 455 kts | 108° |
| 2026-05-06 17:25 | 50.76753 | 4.38745 | 34892 ft | 455 kts | 108° |
| 2026-05-06 17:25 | 50.74868 | 4.48279 | 34898 ft | 455 kts | 109° |
| 2026-05-06 17:26 | 50.72972 | 4.57819 | 34893 ft | 455 kts | 109° |
| 2026-05-06 17:26 | 50.71070 | 4.67344 | 34895 ft | 455 kts | 109° |
| 2026-05-06 17:27 | 50.69161 | 4.76857 | 34893 ft | 455 kts | 109° |
| 2026-05-06 17:27 | 50.67244 | 4.86363 | 34884 ft | 454 kts | 109° |
| 2026-05-06 17:28 | 50.65323 | 4.95843 | 34883 ft | 454 kts | 109° |
| 2026-05-06 17:28 | 50.63377 | 5.05310 | 34889 ft | 454 kts | 109° |
| 2026-05-06 17:29 | 50.61437 | 5.14707 | 34884 ft | 453 kts | 109° |
| 2026-05-06 17:29 | 50.59479 | 5.24163 | 34881 ft | 453 kts | 110° |
| 2026-05-06 17:30 | 50.57518 | 5.33584 | 34884 ft | 453 kts | 110° |
| 2026-05-06 17:30 | 50.55547 | 5.43011 | 34888 ft | 453 kts | 110° |
| 2026-05-06 17:31 | 50.53571 | 5.52417 | 34882 ft | 454 kts | 110° |
| 2026-05-06 17:31 | 50.51586 | 5.61825 | 34885 ft | 454 kts | 110° |
| 2026-05-06 17:32 | 50.49742 | 5.71306 | 34882 ft | 454 kts | 107° |
| 2026-05-06 17:32 | 50.48002 | 5.80860 | 34870 ft | 454 kts | 107° |
| 2026-05-06 17:33 | 50.46241 | 5.90318 | 34871 ft | 454 kts | 108° |
| 2026-05-06 17:33 | 50.44443 | 5.99846 | 34869 ft | 454 kts | 108° |
| 2026-05-06 17:34 | 50.42638 | 6.09347 | 34873 ft | 454 kts | 108° |
| 2026-05-06 17:34 | 50.41735 | 6.14085 | 34733 ft | 452 kts | 108° |
| 2026-05-06 17:34 | 50.40835 | 6.18794 | 34338 ft | 450 kts | 108° |
| 2026-05-06 17:34 | 50.39936 | 6.23482 | 33788 ft | 448 kts | 108° |
| 2026-05-06 17:35 | 50.39039 | 6.28149 | 33063 ft | 447 kts | 108° |
| 2026-05-06 17:35 | 50.38138 | 6.32825 | 32320 ft | 447 kts | 108° |
| 2026-05-06 17:35 | 50.37242 | 6.37463 | 31607 ft | 446 kts | 108° |
| 2026-05-06 17:36 | 50.36069 | 6.46971 | 30200 ft | 445 kts | 96° |
| 2026-05-06 17:36 | 50.35798 | 6.51716 | 29583 ft | 441 kts | 97° |
| 2026-05-06 17:36 | 50.35602 | 6.54933 | 29124 ft | 438 kts | 97° |
| 2026-05-06 17:36 | 50.35205 | 6.61195 | 28186 ft | 435 kts | 97° |
| 2026-05-06 17:37 | 50.34902 | 6.65886 | 27486 ft | 432 kts | 97° |
| 2026-05-06 17:37 | 50.34601 | 6.70550 | 26791 ft | 430 kts | 97° |
| 2026-05-06 17:37 | 50.34299 | 6.75190 | 26163 ft | 427 kts | 97° |
| 2026-05-06 17:37 | 50.34006 | 6.79803 | 25525 ft | 425 kts | 97° |
| 2026-05-06 17:38 | 50.33562 | 6.84362 | 24888 ft | 422 kts | 104° |
| 2026-05-06 17:38 | 50.32756 | 6.88740 | 24304 ft | 418 kts | 111° |
| 2026-05-06 17:38 | 50.31619 | 6.92917 | 23698 ft | 415 kts | 117° |
| 2026-05-06 17:38 | 50.30390 | 6.96996 | 23019 ft | 414 kts | 117° |
| 2026-05-06 17:39 | 50.29176 | 7.01056 | 22406 ft | 410 kts | 116° |
| 2026-05-06 17:39 | 50.27978 | 7.05077 | 21804 ft | 407 kts | 116° |
| 2026-05-06 17:39 | 50.26785 | 7.09078 | 21186 ft | 404 kts | 116° |
| 2026-05-06 17:39 | 50.25599 | 7.13049 | 20597 ft | 402 kts | 117° |
| 2026-05-06 17:40 | 50.24418 | 7.16996 | 19997 ft | 399 kts | 117° |
| 2026-05-06 17:40 | 50.23242 | 7.20915 | 19414 ft | 397 kts | 117° |
| 2026-05-06 17:40 | 50.22074 | 7.24802 | 18851 ft | 395 kts | 117° |
| 2026-05-06 17:40 | 50.20908 | 7.28672 | 18297 ft | 392 kts | 117° |
| 2026-05-06 17:41 | 50.19753 | 7.32521 | 17703 ft | 390 kts | 116° |
| 2026-05-06 17:41 | 50.18777 | 7.36460 | 17131 ft | 387 kts | 112° |
| 2026-05-06 17:41 | 50.17863 | 7.40315 | 16764 ft | 379 kts | 111° |
| 2026-05-06 17:41 | 50.16951 | 7.44153 | 16183 ft | 377 kts | 111° |
| 2026-05-06 17:42 | 50.16041 | 7.47973 | 15626 ft | 375 kts | 112° |
| 2026-05-06 17:42 | 50.15428 | 7.50536 | 15294 ft | 372 kts | 112° |
| 2026-05-06 17:42 | 50.14235 | 7.55517 | 14616 ft | 368 kts | 112° |
| 2026-05-06 17:42 | 50.13641 | 7.57988 | 14282 ft | 366 kts | 112° |
| 2026-05-06 17:43 | 50.12453 | 7.62929 | 13587 ft | 363 kts | 112° |
| 2026-05-06 17:43 | 50.11551 | 7.66593 | 13089 ft | 359 kts | 115° |
| 2026-05-06 17:43 | 50.10409 | 7.69991 | 12868 ft | 354 kts | 124° |
| 2026-05-06 17:43 | 50.09006 | 7.73179 | 12824 ft | 358 kts | 127° |
| 2026-05-06 17:44 | 50.07590 | 7.76352 | 12820 ft | 356 kts | 127° |
| 2026-05-06 17:44 | 50.06180 | 7.79531 | 12818 ft | 356 kts | 127° |
| 2026-05-06 17:44 | 50.04774 | 7.82700 | 12819 ft | 355 kts | 127° |
| 2026-05-06 17:44 | 50.03372 | 7.85852 | 12787 ft | 354 kts | 127° |
| 2026-05-06 17:45 | 50.01972 | 7.88994 | 12551 ft | 352 kts | 127° |
| 2026-05-06 17:45 | 50.01049 | 7.91062 | 12287 ft | 351 kts | 127° |
| 2026-05-06 17:45 | 49.99213 | 7.95235 | 11586 ft | 350 kts | 123° |
| 2026-05-06 17:45 | 49.98020 | 7.98523 | 11061 ft | 348 kts | 121° |
| 2026-05-06 17:46 | 49.97244 | 8.00698 | 10721 ft | 347 kts | 121° |
| 2026-05-06 17:46 | 49.96078 | 8.03953 | 10317 ft | 342 kts | 121° |
| 2026-05-06 17:46 | 49.94917 | 8.07188 | 10246 ft | 343 kts | 121° |
| 2026-05-06 17:46 | 49.93745 | 8.10437 | 10490 ft | 345 kts | 121° |
| 2026-05-06 17:47 | 49.92565 | 8.13699 | 10733 ft | 348 kts | 121° |
| 2026-05-06 17:47 | 49.91378 | 8.16977 | 10807 ft | 348 kts | 121° |
| 2026-05-06 17:47 | 49.90194 | 8.20248 | 10800 ft | 347 kts | 121° |
| 2026-05-06 17:47 | 49.89008 | 8.23512 | 10814 ft | 346 kts | 121° |
| 2026-05-06 17:48 | 49.87825 | 8.26755 | 10807 ft | 346 kts | 121° |
| 2026-05-06 17:48 | 49.86641 | 8.30012 | 10814 ft | 346 kts | 121° |
| 2026-05-06 17:48 | 49.85470 | 8.33280 | 10812 ft | 347 kts | 117° |
| 2026-05-06 17:48 | 49.84829 | 8.36835 | 10820 ft | 351 kts | 96° |
| 2026-05-06 17:49 | 49.85060 | 8.40577 | 10819 ft | 347 kts | 75° |
| 2026-05-06 17:49 | 49.85735 | 8.44072 | 10815 ft | 330 kts | 73° |
| 2026-05-06 17:49 | 49.86395 | 8.47392 | 10809 ft | 313 kts | 73° |
| 2026-05-06 17:49 | 49.87015 | 8.50516 | 10810 ft | 296 kts | 73° |
| 2026-05-06 17:50 | 49.87603 | 8.53472 | 10808 ft | 279 kts | 73° |
| 2026-05-06 17:50 | 49.88159 | 8.56269 | 10801 ft | 263 kts | 73° |
| 2026-05-06 17:50 | 49.88698 | 8.58966 | 10810 ft | 264 kts | 73° |
| 2026-05-06 17:50 | 49.89246 | 8.61702 | 10812 ft | 265 kts | 73° |
| 2026-05-06 17:51 | 49.89789 | 8.64420 | 10809 ft | 263 kts | 73° |
| 2026-05-06 17:51 | 49.90330 | 8.67126 | 10682 ft | 262 kts | 73° |
| 2026-05-06 17:51 | 49.90868 | 8.69823 | 10390 ft | 262 kts | 73° |
| 2026-05-06 17:51 | 49.91406 | 8.72524 | 10060 ft | 261 kts | 73° |
| 2026-05-06 17:52 | 49.91942 | 8.75209 | 9735 ft | 261 kts | 73° |
| 2026-05-06 17:52 | 49.92478 | 8.77897 | 9382 ft | 260 kts | 73° |
| 2026-05-06 17:52 | 49.93004 | 8.80535 | 9043 ft | 259 kts | 73° |
| 2026-05-06 17:52 | 49.93541 | 8.83230 | 8698 ft | 258 kts | 73° |
| 2026-05-06 17:53 | 49.94062 | 8.85843 | 8386 ft | 256 kts | 73° |
| 2026-05-06 17:53 | 49.94592 | 8.88515 | 8053 ft | 255 kts | 73° |
| 2026-05-06 17:53 | 49.95113 | 8.91140 | 7745 ft | 254 kts | 73° |
| 2026-05-06 17:53 | 49.95631 | 8.93755 | 7420 ft | 253 kts | 73° |
| 2026-05-06 17:54 | 49.96148 | 8.96358 | 7099 ft | 252 kts | 73° |
| 2026-05-06 17:54 | 49.96658 | 8.98946 | 6859 ft | 248 kts | 73° |
| 2026-05-06 17:54 | 49.97166 | 9.01514 | 6809 ft | 252 kts | 73° |
| 2026-05-06 17:54 | 49.97681 | 9.04113 | 6779 ft | 250 kts | 73° |
| 2026-05-06 17:55 | 49.98190 | 9.06681 | 6581 ft | 248 kts | 73° |
| 2026-05-06 17:55 | 49.98694 | 9.09219 | 6275 ft | 249 kts | 73° |
| 2026-05-06 17:55 | 49.99201 | 9.11790 | 5966 ft | 248 kts | 73° |
| 2026-05-06 17:55 | 49.99705 | 9.14349 | 5654 ft | 247 kts | 73° |
| 2026-05-06 17:56 | 50.00197 | 9.16905 | 5348 ft | 247 kts | 73° |
| 2026-05-06 17:56 | 50.00686 | 9.19457 | 5081 ft | 244 kts | 73° |
| 2026-05-06 17:56 | 50.01171 | 9.21984 | 4819 ft | 243 kts | 73° |
| 2026-05-06 17:56 | 50.01968 | 9.24262 | 4518 ft | 240 kts | 44° |
| 2026-05-06 17:57 | 50.03340 | 9.25567 | 4179 ft | 234 kts | 11° |
| 2026-05-06 17:57 | 50.04924 | 9.25701 | 4028 ft | 229 kts | 354° |
| 2026-05-06 17:57 | 50.06530 | 9.25570 | 3992 ft | 231 kts | 353° |
| 2026-05-06 17:57 | 50.08144 | 9.25438 | 3998 ft | 233 kts | 354° |
| 2026-05-06 17:58 | 50.09736 | 9.25306 | 3991 ft | 223 kts | 353° |
| 2026-05-06 17:58 | 50.11230 | 9.25197 | 3991 ft | 207 kts | 354° |
| 2026-05-06 17:58 | 50.12669 | 9.25090 | 4000 ft | 210 kts | 354° |
| 2026-05-06 17:58 | 50.14088 | 9.24775 | 3992 ft | 201 kts | 331° |
| 2026-05-06 17:59 | 50.15108 | 9.23421 | 4002 ft | 188 kts | 294° |
| 2026-05-06 17:59 | 50.15322 | 9.21602 | 3991 ft | 162 kts | 257° |
| 2026-05-06 17:59 | 50.15143 | 9.19971 | 3987 ft | 144 kts | 260° |
| 2026-05-06 17:59 | 50.14949 | 9.18465 | 4009 ft | 144 kts | 255° |
| 2026-05-06 18:00 | 50.14762 | 9.16954 | 3978 ft | 140 kts | 275° |
| 2026-05-06 18:00 | 50.15014 | 9.15394 | 4023 ft | 170 kts | 283° |
| 2026-05-06 18:00 | 50.15376 | 9.13445 | 4001 ft | 196 kts | 283° |
| 2026-05-06 18:00 | 50.15744 | 9.11379 | 4001 ft | 198 kts | 281° |
| 2026-05-06 18:01 | 50.15828 | 9.09237 | 4002 ft | 199 kts | 263° |
| 2026-05-06 18:01 | 50.15545 | 9.07153 | 4002 ft | 199 kts | 253° |
| 2026-05-06 18:01 | 50.15091 | 9.05083 | 4003 ft | 201 kts | 250° |
| 2026-05-06 18:01 | 50.14601 | 9.03045 | 4001 ft | 199 kts | 250° |
| 2026-05-06 18:02 | 50.14118 | 9.01019 | 4002 ft | 201 kts | 250° |
| 2026-05-06 18:02 | 50.13633 | 8.98986 | 4000 ft | 199 kts | 250° |
| 2026-05-06 18:02 | 50.13150 | 8.96957 | 4002 ft | 200 kts | 250° |
| 2026-05-06 18:02 | 50.12665 | 8.94921 | 4001 ft | 201 kts | 250° |
| 2026-05-06 18:03 | 50.12186 | 8.92913 | 4001 ft | 199 kts | 250° |
| 2026-05-06 18:03 | 50.11704 | 8.90890 | 4001 ft | 199 kts | 250° |
| 2026-05-06 18:03 | 50.11219 | 8.88854 | 4001 ft | 199 kts | 250° |
| 2026-05-06 18:03 | 50.10745 | 8.86868 | 3997 ft | 187 kts | 250° |
| 2026-05-06 18:04 | 50.10315 | 8.85064 | 3911 ft | 170 kts | 250° |
| 2026-05-06 18:04 | 50.09908 | 8.83358 | 3716 ft | 169 kts | 250° |
| 2026-05-06 18:04 | 50.09498 | 8.81637 | 3494 ft | 167 kts | 250° |
| 2026-05-06 18:04 | 50.09099 | 8.79969 | 3274 ft | 164 kts | 251° |
| 2026-05-06 18:05 | 50.08695 | 8.78274 | 3054 ft | 167 kts | 251° |
| 2026-05-06 18:05 | 50.08288 | 8.76570 | 2831 ft | 170 kts | 251° |
| 2026-05-06 18:05 | 50.07877 | 8.74850 | 2595 ft | 168 kts | 251° |
| 2026-05-06 18:05 | 50.07469 | 8.73142 | 2372 ft | 169 kts | 252° |
| 2026-05-06 18:06 | 50.07061 | 8.71434 | 2140 ft | 167 kts | 253° |
| 2026-05-06 18:06 | 50.06669 | 8.69797 | 1911 ft | 154 kts | 253° |
| 2026-05-06 18:06 | 50.06311 | 8.68304 | 1717 ft | 141 kts | 254° |
| 2026-05-06 18:06 | 50.05969 | 8.66857 | 1499 ft | 150 kts | 253° |
| 2026-05-06 18:07 | 50.05579 | 8.65219 | 1340 ft | 176 kts | 252° |
| 2026-05-06 18:07 | 50.05100 | 8.63266 | 1480 ft | 199 kts | 251° |
| 2026-05-06 18:07 | 50.04611 | 8.61281 | 2007 ft | 200 kts | 252° |
| 2026-05-06 18:07 | 50.04088 | 8.59124 | 2193 ft | 229 kts | 251° |
| 2026-05-06 18:08 | 50.03540 | 8.56891 | 2445 ft | 210 kts | 251° |
| 2026-05-06 18:08 | 50.03043 | 8.54872 | 2601 ft | 196 kts | 251° |
| 2026-05-06 18:08 | 50.02554 | 8.52861 | 2794 ft | 197 kts | 251° |
| 2026-05-06 18:08 | 50.02081 | 8.50849 | 2968 ft | 199 kts | 251° |
| 2026-05-06 18:09 | 50.01600 | 8.48749 | 3164 ft | 213 kts | 251° |
| 2026-05-06 18:09 | 50.00888 | 8.46756 | 3326 ft | 213 kts | 225° |
| 2026-05-06 18:09 | 49.99572 | 8.45682 | 3514 ft | 221 kts | 192° |
| 2026-05-06 18:09 | 49.98067 | 8.45910 | 3689 ft | 226 kts | 159° |
| 2026-05-06 18:10 | 49.96830 | 8.47432 | 3881 ft | 233 kts | 126° |
| 2026-05-06 18:10 | 49.96285 | 8.49797 | 4061 ft | 237 kts | 96° |
| 2026-05-06 18:10 | 49.96188 | 8.52361 | 4245 ft | 239 kts | 93° |
| 2026-05-06 18:10 | 49.96117 | 8.54940 | 4426 ft | 240 kts | 93° |
| 2026-05-06 18:11 | 49.96045 | 8.57538 | 4604 ft | 241 kts | 94° |
| 2026-05-06 18:11 | 49.95979 | 8.60137 | 4775 ft | 241 kts | 93° |
| 2026-05-06 18:11 | 49.95914 | 8.62736 | 4955 ft | 241 kts | 93° |
| 2026-05-06 18:11 | 49.95851 | 8.65357 | 5001 ft | 243 kts | 93° |
| 2026-05-06 18:12 | 49.95791 | 8.67975 | 5006 ft | 243 kts | 93° |
| 2026-05-06 18:12 | 49.95731 | 8.70594 | 5007 ft | 242 kts | 93° |
| 2026-05-06 18:12 | 49.95670 | 8.73210 | 5002 ft | 242 kts | 93° |
| 2026-05-06 18:12 | 49.95611 | 8.75820 | 5007 ft | 242 kts | 93° |
| 2026-05-06 18:13 | 49.95671 | 8.78425 | 4997 ft | 242 kts | 76° |
| 2026-05-06 18:13 | 49.96308 | 8.80825 | 4861 ft | 241 kts | 64° |
| 2026-05-06 18:13 | 49.97047 | 8.83170 | 4583 ft | 241 kts | 63° |
| 2026-05-06 18:13 | 49.97782 | 8.85505 | 4296 ft | 240 kts | 63° |
| 2026-05-06 18:14 | 49.98509 | 8.87821 | 4054 ft | 236 kts | 63° |
| 2026-05-06 18:14 | 49.99230 | 8.90123 | 4006 ft | 239 kts | 63° |
| 2026-05-06 18:14 | 49.99946 | 8.92413 | 4005 ft | 238 kts | 63° |
| 2026-05-06 18:14 | 50.00666 | 8.94729 | 4005 ft | 237 kts | 63° |
| 2026-05-06 18:15 | 50.01384 | 8.97045 | 4005 ft | 236 kts | 63° |
| 2026-05-06 18:15 | 50.02100 | 8.99349 | 4005 ft | 237 kts | 63° |
| 2026-05-06 18:15 | 50.02817 | 9.01657 | 4006 ft | 237 kts | 63° |
| 2026-05-06 18:15 | 50.03533 | 9.03964 | 4008 ft | 237 kts | 63° |
| 2026-05-06 18:16 | 50.04250 | 9.06282 | 4007 ft | 237 kts | 64° |
| 2026-05-06 18:16 | 50.05030 | 9.08540 | 4004 ft | 237 kts | 49° |
| 2026-05-06 18:16 | 50.06321 | 9.10042 | 4010 ft | 231 kts | 17° |
| 2026-05-06 18:16 | 50.07894 | 9.10255 | 4009 ft | 226 kts | 343° |
| 2026-05-06 18:17 | 50.09197 | 9.09177 | 4003 ft | 205 kts | 309° |
| 2026-05-06 18:17 | 50.09825 | 9.07342 | 4011 ft | 188 kts | 284° |
| 2026-05-06 18:17 | 50.10203 | 9.05379 | 4011 ft | 191 kts | 283° |
| 2026-05-06 18:17 | 50.10328 | 9.04707 | 4003 ft | 191 kts | 284° |
| 2026-05-06 18:18 | 50.10932 | 9.01372 | 4005 ft | 192 kts | 283° |
| 2026-05-06 18:18 | 50.11293 | 8.99390 | 4002 ft | 189 kts | 283° |
| 2026-05-06 18:18 | 50.11649 | 8.97412 | 4003 ft | 190 kts | 283° |
| 2026-05-06 18:18 | 50.11995 | 8.95428 | 4003 ft | 190 kts | 279° |
| 2026-05-06 18:19 | 50.12065 | 8.93386 | 4006 ft | 190 kts | 262° |
| 2026-05-06 18:19 | 50.11786 | 8.91393 | 4008 ft | 192 kts | 253° |
| 2026-05-06 18:19 | 50.11358 | 8.89439 | 4002 ft | 189 kts | 250° |
| 2026-05-06 18:19 | 50.10900 | 8.87523 | 4005 ft | 189 kts | 250° |
| 2026-05-06 18:20 | 50.10446 | 8.85616 | 3965 ft | 182 kts | 250° |
| 2026-05-06 18:20 | 50.10012 | 8.83797 | 3774 ft | 179 kts | 250° |
| 2026-05-06 18:20 | 50.09572 | 8.81951 | 3540 ft | 182 kts | 250° |
| 2026-05-06 18:20 | 50.09133 | 8.80114 | 3304 ft | 179 kts | 251° |
| 2026-05-06 18:21 | 50.08707 | 8.78327 | 3089 ft | 179 kts | 251° |
| 2026-05-06 18:21 | 50.08282 | 8.76548 | 2825 ft | 168 kts | 251° |
| 2026-05-06 18:21 | 50.07895 | 8.74927 | 2599 ft | 156 kts | 252° |
| 2026-05-06 18:21 | 50.07532 | 8.73412 | 2392 ft | 143 kts | 252° |
| 2026-05-06 18:22 | 50.07203 | 8.72034 | 2211 ft | 132 kts | 254° |
| 2026-05-06 18:22 | 50.06884 | 8.70688 | 2034 ft | 133 kts | 254° |
| 2026-05-06 18:22 | 50.06563 | 8.69350 | 1853 ft | 130 kts | 253° |
| 2026-05-06 18:22 | 50.06250 | 8.68037 | 1682 ft | 130 kts | 253° |
| 2026-05-06 18:23 | 50.05929 | 8.66684 | 1495 ft | 137 kts | 253° |
| 2026-05-06 18:23 | 50.05608 | 8.65348 | 1277 ft | 126 kts | 252° |
| 2026-05-06 18:23 | 50.05295 | 8.64136 | 1108 ft | 117 kts | 252° |
| 2026-05-06 18:23 | 50.05001 | 8.62971 | 922 ft | 118 kts | 252° |
| 2026-05-06 18:24 | 50.04723 | 8.61750 | 773 ft | 123 kts | 254° |
| 2026-05-06 18:24 | 50.04530 | 8.60888 | 696 ft | 129 kts | 254° |
| 2026-05-06 18:24 | 50.04135 | 8.59198 | 478 ft | 121 kts | 252° |
| 2026-05-06 18:24 | 50.03858 | 8.58020 | 365 ft | 106 kts | 251° |
| 2026-05-06 18:25 | 50.03671 | 8.57239 | 357 ft | 48 kts | 249° |
| 2026-05-06 18:25 | 50.03621 | 8.57037 | 353 ft | 0 kts | 249° |
| 2026-05-06 18:25 | 50.03590 | 8.56904 | 358 ft | 23 kts | 250° |
| 2026-05-06 18:25 | 50.03546 | 8.56720 | 357 ft | 32 kts | 249° |
| 2026-05-06 18:26 | 50.03469 | 8.56391 | 357 ft | 30 kts | 251° |
| 2026-05-06 18:26 | 50.03447 | 8.55965 | 350 ft | 28 kts | 278° |
| 2026-05-06 18:26 | 50.03478 | 8.55698 | 352 ft | 18 kts | 279° |
| 2026-05-06 18:26 | 50.03489 | 8.55477 | 345 ft | 21 kts | 260° |
| 2026-05-06 18:27 | 50.03431 | 8.55214 | 353 ft | 24 kts | 251° |
| 2026-05-06 18:27 | 50.03403 | 8.55101 | 351 ft | 10 kts | 248° |
| 2026-05-06 18:27 | 50.03394 | 8.54983 | 352 ft | 14 kts | 289° |
| 2026-05-06 18:27 | 50.03417 | 8.54898 | 342 ft | 9 kts | 296° |
| 2026-05-06 18:28 | 50.03467 | 8.54838 | 345 ft | 14 kts | 337° |
| 2026-05-06 18:28 | 50.03604 | 8.54759 | 352 ft | 23 kts | 339° |
| 2026-05-06 18:28 | 50.03664 | 8.54726 | 347 ft | 0 kts | 340° |
| 2026-05-06 18:28 | 50.03666 | 8.54724 | 349 ft | 0 kts | 340° |
| 2026-05-06 18:29 | 50.03668 | 8.54723 | 349 ft | 0 kts | 340° |
| 2026-05-06 18:30 | 50.03669 | 8.54723 | 349 ft | 0 kts | 340° |
| 2026-05-06 18:30 | 50.03676 | 8.54719 | 347 ft | 2 kts | 340° |
| 2026-05-06 18:30 | 50.03692 | 8.54712 | 348 ft | 3 kts | 351° |